createdAt,value
2018-05-07T00:02:16.424Z,77.62
2018-05-07T00:04:42.246Z,77.25
2018-05-07T00:07:08.049Z,76.60
2018-05-07T00:09:34.030Z,77.10
2018-05-07T00:11:59.665Z,77.64
2018-05-07T00:14:25.472Z,78.49
2018-05-07T00:16:51.265Z,79.17
2018-05-07T00:19:17.045Z,78.98
2018-05-07T00:21:42.851Z,79.15
2018-05-07T00:24:08.624Z,79.05
2018-05-07T00:26:34.430Z,79.41
2018-05-07T00:29:00.202Z,80.18
2018-05-07T00:31:26.000Z,81.43
2018-05-07T00:33:51.773Z,82.28
2018-05-07T00:36:17.593Z,82.52
2018-05-07T00:38:43.393Z,81.91
2018-05-07T00:41:09.173Z,81.44
2018-05-07T00:43:35.001Z,81.79
2018-05-07T00:46:00.937Z,82.06
2018-05-07T00:48:26.708Z,82.18
2018-05-07T00:50:52.521Z,82.06
2018-05-07T00:53:18.389Z,82.08
2018-05-07T00:55:44.173Z,81.92
2018-05-07T00:58:09.955Z,82.05
2018-05-07T01:00:35.726Z,81.60
2018-05-07T01:03:08.532Z,81.83
2018-05-07T01:05:34.325Z,81.51
2018-05-07T01:08:00.138Z,81.45
2018-05-07T01:10:25.909Z,81.32
2018-05-07T01:12:51.726Z,81.76
2018-05-07T01:15:17.683Z,81.86
2018-05-07T01:17:43.468Z,82.23
2018-05-07T01:20:09.246Z,82.41
2018-05-07T01:22:35.125Z,82.48
2018-05-07T01:25:00.921Z,82.38
2018-05-07T01:27:26.702Z,82.33
2018-05-07T01:29:52.505Z,82.26
2018-05-07T01:32:18.281Z,81.95
2018-05-07T01:34:44.065Z,81.03
2018-05-07T01:37:09.840Z,81.17
2018-05-07T01:39:35.647Z,81.62
2018-05-07T01:42:01.445Z,81.45
2018-05-07T01:44:27.225Z,81.72
2018-05-07T01:46:53.033Z,81.60
2018-05-07T01:49:18.824Z,81.20
2018-05-07T01:51:44.621Z,81.11
2018-05-07T01:54:10.408Z,80.90
2018-05-07T01:56:36.200Z,79.92
2018-05-07T01:59:01.996Z,80.60
2018-05-07T02:01:27.766Z,80.14
2018-05-07T02:04:00.617Z,80.57
2018-05-07T02:06:26.414Z,80.54
2018-05-07T02:08:52.199Z,79.98
2018-05-07T02:11:17.981Z,77.98
2018-05-07T02:13:43.796Z,77.34
2018-05-07T02:16:09.625Z,78.73
2018-05-07T02:18:35.411Z,78.11
2018-05-07T02:21:01.540Z,76.40
2018-05-07T02:23:27.316Z,76.19
2018-05-07T02:25:53.108Z,76.87
2018-05-07T02:28:18.974Z,76.23
2018-05-07T02:30:44.731Z,75.14
2018-05-07T02:33:10.528Z,75.12
2018-05-07T02:35:36.745Z,74.62
2018-05-07T02:38:03.232Z,75.71
2018-05-07T02:40:29.034Z,76.41
2018-05-07T02:42:55.838Z,76.20
2018-05-07T02:45:21.633Z,75.91
2018-05-07T02:47:47.423Z,75.73
2018-05-07T02:50:13.222Z,75.57
2018-05-07T02:52:39.022Z,75.67
2018-05-07T02:55:04.841Z,76.70
2018-05-07T02:57:30.617Z,77.06
2018-05-07T02:59:56.437Z,77.93
2018-05-07T03:02:22.205Z,79.60
2018-05-07T03:04:47.999Z,78.64
2018-05-07T03:07:13.798Z,79.01
2018-05-07T03:09:39.586Z,79.32
2018-05-07T03:12:05.386Z,77.88
2018-05-07T03:14:31.178Z,78.40
2018-05-07T03:16:56.989Z,79.08
2018-05-07T03:19:22.777Z,79.25
2018-05-07T03:21:48.561Z,79.89
2018-05-07T03:24:14.363Z,78.96
2018-05-07T03:26:40.153Z,80.05
2018-05-07T03:29:05.922Z,79.74
2018-05-07T03:31:31.941Z,79.68
2018-05-07T03:33:57.736Z,79.18
2018-05-07T03:36:30.701Z,79.44
2018-05-07T03:38:56.564Z,78.93
2018-05-07T03:41:22.356Z,78.74
2018-05-07T03:43:48.211Z,79.09
2018-05-07T03:46:14.054Z,79.17
2018-05-07T03:48:39.896Z,78.96
2018-05-07T03:51:05.656Z,79.05
2018-05-07T03:53:31.443Z,76.77
2018-05-07T03:55:57.225Z,76.78
2018-05-07T03:58:23.007Z,77.87
2018-05-07T04:00:49.560Z,77.43
2018-05-07T04:03:17.213Z,78.32
2018-05-07T04:05:44.636Z,78.56
2018-05-07T04:08:11.474Z,79.97
2018-05-07T04:10:37.353Z,78.04
2018-05-07T04:13:03.145Z,77.73
2018-05-07T04:15:28.978Z,78.30
2018-05-07T04:18:07.333Z,78.32
2018-05-07T04:20:45.483Z,78.42
2018-05-07T04:23:23.728Z,78.34
2018-05-07T04:25:49.521Z,77.86
2018-05-07T04:28:15.300Z,77.75
2018-05-07T04:30:41.113Z,77.93
2018-05-07T04:33:06.891Z,78.45
2018-05-07T04:35:32.666Z,79.00
2018-05-07T04:37:58.454Z,78.97
2018-05-07T04:40:24.258Z,78.66
2018-05-07T04:42:50.028Z,79.51
2018-05-07T04:45:15.801Z,78.41
2018-05-07T04:47:41.592Z,77.91
2018-05-07T04:50:07.360Z,78.73
2018-05-07T04:52:33.155Z,78.75
2018-05-07T04:54:58.948Z,78.34
2018-05-07T04:57:24.740Z,78.39
2018-05-07T04:59:50.529Z,78.51
2018-05-07T05:02:16.329Z,78.84
2018-05-07T05:04:42.185Z,78.23
2018-05-07T05:07:08.004Z,78.21
2018-05-07T05:09:33.782Z,77.35
2018-05-07T05:11:59.598Z,77.49
2018-05-07T05:14:25.369Z,77.29
2018-05-07T05:19:17.228Z,77.12
2018-05-07T05:21:42.972Z,77.01
2018-05-07T05:24:08.745Z,76.37
2018-05-07T05:26:34.533Z,76.15
2018-05-07T05:29:00.300Z,76.09
2018-05-07T05:31:26.127Z,75.54
2018-05-07T05:33:51.909Z,75.59
2018-05-07T05:36:17.701Z,75.84
2018-05-07T05:38:43.476Z,75.31
2018-05-07T05:41:09.264Z,74.94
2018-05-07T05:43:35.073Z,74.63
2018-05-07T05:46:00.856Z,74.24
2018-05-07T05:48:26.641Z,74.22
2018-05-07T05:50:52.420Z,74.13
2018-05-07T05:53:18.222Z,74.05
2018-05-07T05:55:44.000Z,73.45
2018-05-07T05:58:09.806Z,72.82
2018-05-07T06:00:35.596Z,72.31
2018-05-07T06:03:01.394Z,71.44
2018-05-07T06:05:27.164Z,71.64
2018-05-07T06:07:52.953Z,70.93
2018-05-07T06:10:18.758Z,70.49
2018-05-07T06:12:44.542Z,70.54
2018-05-07T06:15:10.315Z,70.54
2018-05-07T06:17:36.291Z,69.58
2018-05-07T06:20:02.174Z,68.28
2018-05-07T06:22:27.897Z,67.22
2018-05-07T06:24:53.698Z,67.92
2018-05-07T06:27:19.558Z,67.88
2018-05-07T06:29:45.286Z,67.11
2018-05-07T06:32:11.070Z,66.32
2018-05-07T06:34:36.857Z,67.13
2018-05-07T06:37:02.684Z,67.11
2018-05-07T06:39:28.470Z,66.77
2018-05-07T06:41:54.266Z,65.97
2018-05-07T06:44:20.068Z,66.16
2018-05-07T06:46:45.847Z,65.85
2018-05-07T06:49:11.643Z,65.35
2018-05-07T06:51:37.458Z,64.76
2018-05-07T06:54:03.252Z,63.73
2018-05-07T06:56:29.047Z,62.28
2018-05-07T06:58:54.836Z,62.92
2018-05-07T07:01:20.629Z,63.25
2018-05-07T07:03:46.677Z,63.65
2018-05-07T07:06:12.578Z,62.60
2018-05-07T07:08:38.413Z,62.22
2018-05-07T07:11:04.176Z,61.52
2018-05-07T07:13:29.981Z,60.81
2018-05-07T07:15:55.759Z,60.71
2018-05-07T07:18:21.538Z,61.32
2018-05-07T07:20:47.330Z,60.50
2018-05-07T07:23:13.125Z,59.79
2018-05-07T07:25:38.942Z,58.38
2018-05-07T07:28:04.779Z,57.48
2018-05-07T07:30:30.522Z,57.32
2018-05-07T07:32:56.354Z,57.36
2018-05-07T07:35:22.138Z,56.76
2018-05-07T07:37:47.951Z,56.36
2018-05-07T07:40:13.740Z,57.30
2018-05-07T07:42:39.537Z,56.85
2018-05-07T07:45:05.987Z,56.57
2018-05-07T07:47:31.764Z,55.17
2018-05-07T07:49:57.548Z,51.83
2018-05-07T07:52:23.436Z,52.52
2018-05-07T07:54:49.149Z,51.54
2018-05-07T07:57:14.938Z,51.98
2018-05-07T07:59:40.753Z,52.20
2018-05-07T08:02:06.537Z,51.87
2018-05-07T08:04:32.321Z,49.67
2018-05-07T08:06:58.114Z,48.52
2018-05-07T08:09:23.917Z,46.93
2018-05-07T08:11:49.700Z,48.99
2018-05-07T08:14:15.490Z,50.12
2018-05-07T08:16:41.291Z,47.74
2018-05-07T08:19:07.097Z,48.42
2018-05-07T08:21:32.890Z,48.04
2018-05-07T08:23:58.677Z,46.72
2018-05-07T08:26:24.466Z,46.75
2018-05-07T08:28:50.243Z,46.04
2018-05-07T08:31:16.027Z,45.05
2018-05-07T08:33:41.828Z,44.65
2018-05-07T08:36:07.623Z,44.92
2018-05-07T08:38:33.442Z,43.80
2018-05-07T08:40:59.208Z,44.14
2018-05-07T08:43:24.988Z,44.55
2018-05-07T08:45:50.816Z,43.66
2018-05-07T08:48:16.590Z,44.63
2018-05-07T08:50:42.407Z,43.64
2018-05-07T08:53:08.260Z,43.43
2018-05-07T08:55:33.990Z,43.73
2018-05-07T08:57:59.804Z,42.79
2018-05-07T09:00:25.577Z,43.72
2018-05-07T09:02:51.355Z,44.47
2018-05-07T09:05:17.149Z,44.10
2018-05-07T09:07:42.929Z,42.85
2018-05-07T09:10:08.749Z,43.29
2018-05-07T09:12:34.540Z,43.71
2018-05-07T09:15:00.347Z,43.22
2018-05-07T09:17:26.166Z,43.41
2018-05-07T09:19:51.956Z,43.60
2018-05-07T09:22:17.753Z,43.56
2018-05-07T09:24:43.601Z,43.61
2018-05-07T09:27:09.461Z,42.72
2018-05-07T09:29:35.238Z,43.02
2018-05-07T09:32:01.038Z,42.71
2018-05-07T09:34:26.824Z,43.38
2018-05-07T09:36:52.593Z,43.59
2018-05-07T09:39:18.379Z,43.22
2018-05-07T09:41:44.173Z,42.15
2018-05-07T09:44:09.976Z,41.60
2018-05-07T09:46:35.768Z,41.21
2018-05-07T09:49:01.568Z,41.03
2018-05-07T09:51:27.349Z,40.38
2018-05-07T09:53:53.129Z,39.15
2018-05-07T09:56:18.909Z,38.46
2018-05-07T09:58:56.072Z,37.55
2018-05-07T10:01:21.853Z,38.91
2018-05-07T10:03:47.629Z,37.70
2018-05-07T10:06:13.441Z,36.87
2018-05-07T10:08:39.232Z,37.33
2018-05-07T10:11:05.026Z,36.93
2018-05-07T10:13:30.825Z,36.55
2018-05-07T10:15:56.618Z,35.42
2018-05-07T10:18:22.392Z,34.68
2018-05-07T10:20:48.177Z,35.35
2018-05-07T10:23:14.289Z,35.21
2018-05-07T10:25:40.099Z,36.66
2018-05-07T10:28:05.892Z,36.18
2018-05-07T10:30:31.663Z,35.61
2018-05-07T10:32:57.448Z,37.06
2018-05-07T10:35:23.235Z,37.53
2018-05-07T10:37:49.015Z,37.84
2018-05-07T10:40:15.018Z,37.26
2018-05-07T10:42:40.850Z,37.41
2018-05-07T10:45:06.595Z,37.05
2018-05-07T10:47:32.404Z,36.95
2018-05-07T10:49:58.197Z,36.62
2018-05-07T10:52:23.983Z,36.81
2018-05-07T10:54:49.765Z,36.11
2018-05-07T10:57:15.553Z,36.00
2018-05-07T10:59:41.325Z,36.57
2018-05-07T11:02:07.376Z,35.37
2018-05-07T11:04:33.181Z,35.80
2018-05-07T11:06:58.955Z,35.49
2018-05-07T11:09:24.781Z,36.66
2018-05-07T11:11:50.604Z,34.66
2018-05-07T11:14:16.387Z,33.58
2018-05-07T11:16:42.175Z,33.17
2018-05-07T11:19:07.969Z,33.03
2018-05-07T11:21:33.757Z,32.48
2018-05-07T11:23:59.548Z,32.58
2018-05-07T11:26:25.317Z,33.14
2018-05-07T11:28:51.103Z,31.99
2018-05-07T11:31:16.898Z,33.07
2018-05-07T11:33:42.676Z,32.82
2018-05-07T11:36:08.497Z,33.63
2018-05-07T11:38:34.278Z,33.30
2018-05-07T11:41:00.073Z,33.75
2018-05-07T11:43:25.852Z,31.71
2018-05-07T11:45:51.636Z,32.58
2018-05-07T11:48:17.456Z,33.39
2018-05-07T11:50:43.248Z,34.32
2018-05-07T11:53:09.136Z,34.46
2018-05-07T11:55:35.124Z,34.61
2018-05-07T11:58:00.927Z,32.90
2018-05-07T12:00:26.741Z,33.88
2018-05-07T12:02:52.534Z,33.68
2018-05-07T12:05:18.313Z,33.33
2018-05-07T12:07:44.082Z,34.70
2018-05-07T12:10:09.856Z,32.39
2018-05-07T12:12:35.633Z,31.41
2018-05-07T12:15:01.626Z,31.94
2018-05-07T12:17:27.409Z,32.38
2018-05-07T12:19:53.193Z,32.43
2018-05-07T12:22:18.985Z,31.91
2018-05-07T12:24:44.780Z,31.56
2018-05-07T12:27:10.563Z,31.58
2018-05-07T12:29:36.360Z,30.33
2018-05-07T12:32:02.137Z,30.38
2018-05-07T12:34:27.924Z,30.09
2018-05-07T12:36:53.713Z,29.15
2018-05-07T12:39:19.482Z,29.29
2018-05-07T12:41:45.259Z,29.32
2018-05-07T12:44:11.050Z,29.08
2018-05-07T12:46:36.981Z,29.10
2018-05-07T12:49:02.756Z,28.75
2018-05-07T12:51:28.720Z,29.26
2018-05-07T12:53:54.520Z,28.80
2018-05-07T12:56:20.317Z,28.34
2018-05-07T12:58:46.158Z,29.54
2018-05-07T13:01:11.961Z,28.77
2018-05-07T13:03:37.744Z,29.16
2018-05-07T13:06:03.545Z,27.92
2018-05-07T13:08:29.348Z,27.55
2018-05-07T13:10:55.148Z,28.63
2018-05-07T13:13:20.952Z,27.87
2018-05-07T13:15:46.745Z,27.49
2018-05-07T13:18:12.533Z,27.40
2018-05-07T13:20:38.505Z,29.14
2018-05-07T13:23:04.294Z,28.65
2018-05-07T13:25:30.088Z,27.85
2018-05-07T13:27:55.892Z,27.71
2018-05-07T13:30:21.780Z,27.38
2018-05-07T13:32:47.570Z,27.49
2018-05-07T13:35:13.352Z,26.43
2018-05-07T13:37:39.342Z,27.37
2018-05-07T13:40:05.140Z,25.85
2018-05-07T13:42:30.927Z,25.90
2018-05-07T13:44:56.729Z,26.97
2018-05-07T13:47:22.502Z,26.93
2018-05-07T13:49:48.326Z,27.78
2018-05-07T13:52:14.118Z,27.63
2018-05-07T13:54:39.928Z,27.47
2018-05-07T13:57:05.724Z,28.17
2018-05-07T13:59:31.498Z,27.66
2018-05-07T14:01:57.314Z,27.84
2018-05-07T14:04:23.126Z,28.06
2018-05-07T14:06:48.898Z,27.15
2018-05-07T14:09:14.693Z,26.20
2018-05-07T14:11:40.482Z,27.38
2018-05-07T14:14:06.272Z,26.57
2018-05-07T14:16:32.066Z,27.35
2018-05-07T14:18:57.857Z,26.58
2018-05-07T14:21:23.669Z,27.76
2018-05-07T14:23:49.456Z,26.25
2018-05-07T14:26:15.252Z,26.67
2018-05-07T14:28:41.049Z,26.63
2018-05-07T14:31:06.824Z,27.65
2018-05-07T14:33:32.693Z,27.23
2018-05-07T14:35:58.468Z,27.46
2018-05-07T14:38:24.256Z,27.80
2018-05-07T14:40:50.033Z,27.99
2018-05-07T14:43:15.853Z,28.21
2018-05-07T14:45:41.736Z,27.64
2018-05-07T14:48:07.455Z,27.42
2018-05-07T14:50:33.249Z,28.18
2018-05-07T14:52:59.065Z,28.65
2018-05-07T14:55:24.856Z,28.98
2018-05-07T14:57:50.648Z,29.49
2018-05-07T15:00:16.453Z,29.25
2018-05-07T15:02:42.233Z,29.75
2018-05-07T15:05:08.039Z,28.68
2018-05-07T15:07:33.848Z,28.98
2018-05-07T15:09:59.633Z,29.37
2018-05-07T15:12:25.426Z,30.41
2018-05-07T15:14:51.233Z,30.52
2018-05-07T15:17:17.013Z,30.74
2018-05-07T15:19:43.075Z,31.92
2018-05-07T15:22:08.877Z,31.62
2018-05-07T15:24:44.929Z,32.15
2018-05-07T15:27:11.000Z,31.63
2018-05-07T15:29:36.806Z,32.10
2018-05-07T15:32:02.673Z,32.44
2018-05-07T15:34:28.540Z,32.37
2018-05-07T15:36:54.261Z,32.60
2018-05-07T15:39:20.063Z,32.40
2018-05-07T15:41:45.848Z,32.19
2018-05-07T15:44:11.647Z,32.53
2018-05-07T15:46:37.445Z,32.42
2018-05-07T15:49:03.246Z,32.74
2018-05-07T15:51:29.042Z,32.62
2018-05-07T15:53:54.935Z,33.13
2018-05-07T15:56:20.653Z,33.57
2018-05-07T15:58:46.455Z,33.34
2018-05-07T16:01:12.248Z,32.83
2018-05-07T16:03:38.034Z,33.46
2018-05-07T16:06:03.849Z,34.17
2018-05-07T16:08:29.648Z,33.40
2018-05-07T16:10:55.453Z,33.75
2018-05-07T16:13:21.242Z,34.06
2018-05-07T16:15:47.044Z,34.38
2018-05-07T16:18:13.213Z,34.63
2018-05-07T16:20:39.067Z,34.63
2018-05-07T16:23:04.790Z,34.94
2018-05-07T16:25:30.616Z,35.28
2018-05-07T16:27:56.394Z,34.46
2018-05-07T16:30:22.182Z,35.02
2018-05-07T16:32:47.996Z,35.02
2018-05-07T16:35:13.784Z,35.56
2018-05-07T16:37:39.619Z,35.36
2018-05-07T16:40:05.436Z,35.58
2018-05-07T16:42:31.212Z,35.68
2018-05-07T16:44:57.061Z,36.10
2018-05-07T16:47:22.890Z,37.22
2018-05-07T16:49:48.681Z,37.37
2018-05-07T16:52:14.488Z,37.03
2018-05-07T16:54:40.275Z,36.70
2018-05-07T16:57:06.060Z,36.61
2018-05-07T16:59:31.892Z,36.25
2018-05-07T17:01:57.813Z,36.49
2018-05-07T17:04:23.597Z,38.57
2018-05-07T17:06:49.437Z,40.72
2018-05-07T17:09:15.394Z,41.96
2018-05-07T17:11:41.188Z,42.92
2018-05-07T17:14:07.001Z,43.41
2018-05-07T17:16:32.776Z,43.54
2018-05-07T17:18:58.566Z,44.22
2018-05-07T17:21:24.360Z,44.61
2018-05-07T17:23:50.162Z,44.75
2018-05-07T17:26:16.002Z,44.95
2018-05-07T17:28:41.808Z,45.43
2018-05-07T17:31:09.393Z,45.46
2018-05-07T17:33:36.135Z,45.76
2018-05-07T17:36:04.830Z,45.92
2018-05-07T17:38:32.737Z,46.25
2018-05-07T17:41:00.342Z,46.10
2018-05-07T17:43:29.079Z,46.71
2018-05-07T17:46:07.769Z,47.12
2018-05-07T17:48:46.825Z,46.85
2018-05-07T17:51:13.645Z,47.38
2018-05-07T17:53:39.457Z,47.26
2018-05-07T17:56:06.763Z,46.97
2018-05-07T17:58:32.590Z,47.58
2018-05-07T18:00:59.469Z,47.76
2018-05-07T18:03:26.553Z,48.18
2018-05-07T18:05:53.749Z,48.49
2018-05-07T18:08:19.541Z,48.39
2018-05-07T18:10:48.121Z,48.70
2018-05-07T18:13:15.565Z,48.87
2018-05-07T18:15:43.220Z,49.17
2018-05-07T18:18:09.587Z,49.74
2018-05-07T18:20:35.414Z,49.72
2018-05-07T18:23:01.206Z,50.11
2018-05-07T18:25:26.973Z,50.51
2018-05-07T18:27:52.797Z,50.69
2018-05-07T18:30:18.596Z,50.74
2018-05-07T18:32:44.402Z,50.99
2018-05-07T18:35:10.200Z,51.31
2018-05-07T18:37:36.001Z,51.34
2018-05-07T18:40:01.810Z,51.82
2018-05-07T18:42:27.603Z,52.22
2018-05-07T18:44:53.677Z,52.27
2018-05-07T18:47:19.487Z,52.24
2018-05-07T18:49:45.249Z,52.70
2018-05-07T18:52:11.062Z,52.96
2018-05-07T18:54:36.855Z,53.34
2018-05-07T18:57:02.662Z,53.58
2018-05-07T18:59:28.455Z,53.67
2018-05-07T19:01:54.290Z,53.93
2018-05-07T19:04:20.445Z,54.17
2018-05-07T19:06:46.249Z,54.24
2018-05-07T19:09:12.232Z,54.66
2018-05-07T19:11:38.037Z,54.96
2018-05-07T19:14:03.843Z,55.47
2018-05-07T19:16:29.830Z,55.45
2018-05-07T19:18:55.633Z,55.66
2018-05-07T19:21:21.551Z,56.26
2018-05-07T19:23:47.360Z,56.18
2018-05-07T19:26:13.164Z,56.88
2018-05-07T19:28:38.956Z,56.95
2018-05-07T19:31:04.762Z,57.03
2018-05-07T19:33:30.576Z,57.60
2018-05-07T19:35:56.371Z,57.75
2018-05-07T19:38:22.160Z,57.89
2018-05-07T19:40:47.980Z,58.19
2018-05-07T19:43:13.769Z,58.68
2018-05-07T19:45:39.582Z,58.88
2018-05-07T19:48:05.478Z,59.25
2018-05-07T19:50:31.265Z,59.74
2018-05-07T19:52:57.065Z,60.37
2018-05-07T19:55:22.873Z,60.52
2018-05-07T19:57:48.788Z,60.57
2018-05-07T20:00:14.597Z,60.98
2018-05-07T20:02:40.399Z,60.98
2018-05-07T20:05:06.208Z,61.25
2018-05-07T20:07:32.008Z,61.26
2018-05-07T20:09:57.808Z,61.54
2018-05-07T20:12:23.661Z,61.70
2018-05-07T20:14:49.409Z,62.49
2018-05-07T20:17:15.209Z,62.58
2018-05-07T20:19:41.021Z,62.88
2018-05-07T20:22:06.795Z,63.33
2018-05-07T20:24:32.596Z,63.02
2018-05-07T20:26:58.573Z,62.77
2018-05-07T20:29:24.372Z,63.14
2018-05-07T20:31:50.148Z,63.46
2018-05-07T20:34:15.952Z,63.39
2018-05-07T20:36:41.733Z,63.98
2018-05-07T20:39:07.516Z,64.27
2018-05-07T20:41:33.313Z,63.89
2018-05-07T20:43:59.240Z,64.15
2018-05-07T20:46:25.036Z,64.49
2018-05-07T20:48:50.894Z,64.75
2018-05-07T20:51:16.730Z,64.83
2018-05-07T20:53:43.299Z,65.56
2018-05-07T20:56:09.242Z,65.73
2018-05-07T20:58:35.047Z,65.61
2018-05-07T21:01:00.953Z,65.73
2018-05-07T21:03:26.872Z,65.30
2018-05-07T21:05:52.777Z,65.90
2018-05-07T21:08:18.579Z,66.06
2018-05-07T21:10:44.368Z,66.89
2018-05-07T21:13:10.246Z,67.25
2018-05-07T21:15:35.956Z,66.87
2018-05-07T21:18:01.986Z,67.02
2018-05-07T21:20:27.780Z,66.58
2018-05-07T21:22:53.600Z,66.25
2018-05-07T21:25:19.445Z,66.88
2018-05-07T21:27:45.223Z,67.24
2018-05-07T21:30:11.372Z,68.10
2018-05-07T21:32:37.470Z,68.08
2018-05-07T21:35:03.261Z,68.10
2018-05-07T21:37:29.056Z,68.36
2018-05-07T21:39:54.842Z,68.42
2018-05-07T21:42:20.641Z,68.83
2018-05-07T21:44:46.454Z,68.89
2018-05-07T21:47:12.669Z,69.41
2018-05-07T21:49:38.452Z,69.75
2018-05-07T21:52:04.368Z,69.84
2018-05-07T21:54:30.170Z,70.08
2018-05-07T21:56:55.961Z,70.55
2018-05-07T21:59:21.773Z,70.24
2018-05-07T22:01:47.566Z,70.49
2018-05-07T22:04:13.548Z,70.52
2018-05-07T22:06:39.992Z,71.02
2018-05-07T22:09:06.157Z,71.40
2018-05-07T22:11:31.945Z,71.36
2018-05-07T22:13:58.233Z,71.50
2018-05-07T22:16:24.021Z,71.73
2018-05-07T22:18:51.834Z,72.07
2018-05-07T22:21:18.448Z,72.15
2018-05-07T22:23:44.221Z,72.58
2018-05-07T22:26:10.403Z,72.41
2018-05-07T22:28:36.273Z,72.18
2018-05-07T22:31:02.094Z,72.48
2018-05-07T22:33:27.879Z,72.16
2018-05-07T22:35:53.680Z,72.61
2018-05-07T22:38:19.557Z,72.55
2018-05-07T22:40:45.590Z,72.83
2018-05-07T22:43:11.411Z,73.03
2018-05-07T22:45:37.285Z,73.06
2018-05-07T22:48:03.134Z,73.27
2018-05-07T22:50:28.929Z,73.59
2018-05-07T22:52:54.736Z,73.48
2018-05-07T22:55:20.636Z,73.15
2018-05-07T22:57:46.428Z,73.77
2018-05-07T23:00:13.084Z,73.68
2018-05-07T23:02:38.901Z,74.18
2018-05-07T23:05:04.692Z,74.26
2018-05-07T23:07:30.484Z,74.02
2018-05-07T23:09:56.293Z,73.70
2018-05-07T23:12:22.127Z,73.88
2018-05-07T23:14:47.929Z,74.00
2018-05-07T23:17:13.721Z,73.85
2018-05-07T23:19:39.537Z,74.46
2018-05-07T23:22:05.335Z,74.89
2018-05-07T23:24:31.116Z,74.88
2018-05-07T23:26:56.925Z,75.03
2018-05-07T23:29:22.727Z,74.61
2018-05-07T23:31:48.504Z,75.33
2018-05-07T23:34:14.297Z,75.00
2018-05-07T23:36:40.090Z,75.49
2018-05-07T23:39:05.897Z,75.44
2018-05-07T23:41:31.716Z,75.64
2018-05-07T23:43:57.500Z,75.15
2018-05-07T23:46:23.306Z,74.87
2018-05-07T23:48:49.097Z,75.81
2018-05-07T23:51:14.874Z,75.23
2018-05-07T23:53:40.690Z,75.03
2018-05-07T23:56:06.482Z,75.29
2018-05-07T23:58:32.260Z,75.60
